Time;durP1;ratioP1;P1;durP2;ratioP2;P2;SDS_P1;SDS_P2;PMS_P1;PMS_P2;Temp;Humidity;BMP_temperature;BMP_pressure;BME280_temperature;BME280_humidity;BME280_pressure;Samples;Min_cycle;Max_cycle;Signal;HPM_P1;HPM_P2
2023/07/03 00:02:05;;;;;;;0.10;0.10;;;;;;;15.88;58.77;97023.97;5042221;28;20072;-77
2023/07/03 00:04:35;;;;;;;0.00;0.00;;;;;;;15.77;59.16;97017.59;5043304;28;20068;-77
2023/07/03 00:07:03;;;;;;;0.00;0.00;;;;;;;15.86;59.05;97015.31;5042770;28;20511;-77
2023/07/03 00:09:31;;;;;;;0.10;0.10;;;;;;;15.82;59.04;97023.06;5041854;28;20067;-77
2023/07/03 00:11:59;;;;;;;0.00;0.00;;;;;;;15.81;59.02;97016.03;5041849;28;20052;-78
2023/07/03 00:14:27;;;;;;;0.10;0.10;;;;;;;15.79;59.01;97018.16;5046622;28;20140;-77
2023/07/03 00:16:56;;;;;;;0.10;0.10;;;;;;;15.80;59.26;97019.78;5041766;28;20041;-78
2023/07/03 00:19:26;;;;;;;0.17;0.17;;;;;;;15.70;59.67;97017.72;5045159;28;20049;-78
2023/07/03 00:21:54;;;;;;;0.10;0.10;;;;;;;15.65;59.85;97014.16;5041609;28;20459;-78
2023/07/03 00:24:21;;;;;;;0.10;0.10;;;;;;;15.68;59.60;97003.69;5040702;28;20531;-78
2023/07/03 00:26:49;;;;;;;0.00;0.00;;;;;;;15.67;59.52;97012.03;5041595;28;20049;-78
2023/07/03 00:29:16;;;;;;;0.10;0.10;;;;;;;15.45;60.10;97013.72;5041101;28;20175;-77
2023/07/03 00:31:44;;;;;;;0.10;0.10;;;;;;;15.25;60.84;97006.09;5040764;28;20052;-77
2023/07/03 00:34:13;;;;;;;0.10;0.10;;;;;;;15.29;60.86;97007.22;5041168;28;20041;-77
2023/07/03 00:36:41;;;;;;;0.13;0.13;;;;;;;15.23;61.13;97010.88;5040374;28;20409;-78
2023/07/03 00:39:08;;;;;;;0.10;0.10;;;;;;;15.26;61.06;97010.41;5040351;28;20041;-77
2023/07/03 00:41:36;;;;;;;0.10;0.10;;;;;;;15.22;61.36;97014.63;5040663;28;20412;-77
2023/07/03 00:44:05;;;;;;;0.10;0.10;;;;;;;15.03;61.62;97006.72;5040267;28;20059;-77
2023/07/03 00:46:32;;;;;;;0.10;0.10;;;;;;;15.09;61.33;97007.63;5039695;28;20049;-79
2023/07/03 00:49:00;;;;;;;0.10;0.10;;;;;;;15.19;61.36;97007.03;5040031;28;20037;-77
2023/07/03 00:51:29;;;;;;;0.10;0.10;;;;;;;15.10;61.47;97003.88;5040149;28;20059;-80
2023/07/03 00:53:57;;;;;;;0.10;0.10;;;;;;;14.98;61.88;97009.28;5043694;28;20036;-77
2023/07/03 00:56:24;;;;;;;0.05;0.05;;;;;;;15.05;61.96;97009.19;5041258;28;20067;-79
2023/07/03 00:58:52;;;;;;;0.10;0.10;;;;;;;15.02;61.91;97002.41;5042051;28;20037;-78
2023/07/03 01:01:23;;;;;;;0.10;0.10;;;;;;;14.99;61.96;97010.09;5040091;28;20054;-80
2023/07/03 01:03:53;;;;;;;0.00;0.00;;;;;;;15.06;61.85;96995.47;5041872;28;20040;-77
2023/07/03 01:06:23;;;;;;;0.10;0.10;;;;;;;14.96;61.76;96999.81;5046999;28;20063;-77
2023/07/03 01:08:54;;;;;;;0.17;0.17;;;;;;;14.88;61.90;96998.31;5047526;28;20049;-77
2023/07/03 01:11:22;;;;;;;0.10;0.10;;;;;;;14.88;62.03;96997.50;5047776;28;20044;-77
2023/07/03 01:13:52;;;;;;;0.00;0.00;;;;;;;14.86;62.03;97003.13;5046731;28;20045;-79
2023/07/03 01:16:20;;;;;;;0.10;0.10;;;;;;;14.84;62.20;96986.44;5047470;28;20415;-78
2023/07/03 01:18:49;;;;;;;0.10;0.10;;;;;;;14.81;62.12;96992.28;5047262;28;20036;-78
2023/07/03 01:21:20;;;;;;;0.10;0.10;;;;;;;14.82;62.16;96995.78;5047945;28;20070;-78
2023/07/03 01:23:54;;;;;;;0.10;0.10;;;;;;;14.85;61.99;96993.41;5046772;28;20520;-78
2023/07/03 01:26:25;;;;;;;0.10;0.10;;;;;;;14.87;61.78;96988.63;5047659;28;20050;-78
2023/07/03 01:28:55;;;;;;;0.10;0.10;;;;;;;14.87;61.74;96988.63;5047734;28;20052;-78
2023/07/03 01:31:25;;;;;;;0.10;0.10;;;;;;;14.81;61.87;96984.22;5047352;28;20030;-78
2023/07/03 01:33:54;;;;;;;0.17;0.17;;;;;;;14.77;62.19;96991.09;5046357;28;20045;-78
2023/07/03 01:36:22;;;;;;;0.10;0.10;;;;;;;14.80;62.04;96985.25;5050217;28;20042;-80
2023/07/03 01:38:51;;;;;;;0.10;0.10;;;;;;;14.84;61.88;96982.94;5050679;28;20400;-79
2023/07/03 01:41:18;;;;;;;0.20;0.20;;;;;;;14.79;61.94;96986.31;5052016;28;20067;-78
2023/07/03 01:43:48;;;;;;;0.10;0.10;;;;;;;14.84;62.03;96985.63;5047705;28;20048;-78
2023/07/03 01:46:16;;;;;;;0.10;0.10;;;;;;;14.83;61.94;96984.81;5051230;28;20068;-77
2023/07/03 01:48:44;;;;;;;0.05;0.05;;;;;;;14.92;61.42;96986.06;5053488;28;20095;-76
2023/07/03 01:51:15;;;;;;;0.10;0.10;;;;;;;14.85;61.88;96988.03;5051860;28;20045;-77
2023/07/03 01:53:49;;;;;;;0.00;0.00;;;;;;;14.77;61.73;96979.53;5055189;28;20058;-77
2023/07/03 01:56:20;;;;;;;0.10;0.10;;;;;;;14.73;62.00;96987.28;5052645;28;20052;-76
2023/07/03 01:58:50;;;;;;;0.17;0.17;;;;;;;14.68;62.18;96982.59;5054687;28;20363;-75
2023/07/03 02:01:24;;;;;;;0.20;0.20;;;;;;;14.64;62.01;96988.66;5051564;28;20136;-76
2023/07/03 02:03:54;;;;;;;0.20;0.20;;;;;;;14.59;62.33;96980.50;5050211;28;20183;-75
2023/07/03 02:06:24;;;;;;;0.08;0.08;;;;;;;14.58;62.39;96981.53;5046373;28;20148;-76
2023/07/03 02:08:52;;;;;;;0.00;0.00;;;;;;;14.60;62.33;96990.19;5046734;28;20405;-76
2023/07/03 02:11:22;;;;;;;0.10;0.10;;;;;;;14.61;62.12;96981.09;5045860;28;20069;-76
2023/07/03 02:13:56;;;;;;;0.10;0.10;;;;;;;14.56;62.40;96983.66;5062158;28;20041;-75
2023/07/03 02:16:29;;;;;;;0.10;0.10;;;;;;;14.55;62.47;96982.81;5046309;28;20415;-76
2023/07/03 02:18:57;;;;;;;0.13;0.13;;;;;;;14.59;62.44;96994.75;5043194;28;20630;-76
2023/07/03 02:21:24;;;;;;;0.10;0.10;;;;;;;14.58;62.55;96993.09;5043724;28;20496;-76
2023/07/03 02:23:52;;;;;;;0.10;0.10;;;;;;;14.60;62.36;96995.56;5043571;28;20128;-77
2023/07/03 02:26:19;;;;;;;0.20;0.20;;;;;;;14.61;62.41;96998.03;5044563;28;20057;-76
2023/07/03 02:28:47;;;;;;;0.10;0.10;;;;;;;14.67;62.25;96997.06;5042228;28;20081;-76
2023/07/03 02:31:16;;;;;;;0.20;0.20;;;;;;;14.61;62.27;97000.72;5045204;28;20037;-76
2023/07/03 02:33:43;;;;;;;0.10;0.10;;;;;;;14.63;62.49;97001.28;5043205;28;20076;-76
2023/07/03 02:36:11;;;;;;;0.10;0.10;;;;;;;14.67;62.38;96998.94;5044350;28;20084;-76
2023/07/03 02:38:38;;;;;;;0.10;0.10;;;;;;;14.71;62.32;96999.28;5044737;28;20557;-76
2023/07/03 02:41:06;;;;;;;0.17;0.17;;;;;;;14.68;62.25;97000.56;5042471;28;20053;-76
2023/07/03 02:43:33;;;;;;;0.10;0.10;;;;;;;14.77;62.10;96991.09;5045929;28;20049;-76
2023/07/03 02:46:05;;;;;;;0.10;0.10;;;;;;;14.79;62.22;96997.06;5042914;28;20049;-76
2023/07/03 02:48:35;;;;;;;0.10;0.10;;;;;;;14.82;62.08;96985.84;5042702;28;20041;-76
2023/07/03 02:51:03;;;;;;;0.10;0.10;;;;;;;14.79;62.19;96991.69;5043412;28;20522;-76
2023/07/03 02:53:33;;;;;;;0.10;0.10;;;;;;;14.78;62.14;96987.38;5042779;28;20463;-77
2023/07/03 02:56:07;;;;;;;0.20;0.20;;;;;;;14.84;62.15;96991.00;5041905;28;20057;-76
2023/07/03 02:58:36;;;;;;;0.05;0.05;;;;;;;14.84;61.95;96997.19;5041684;28;20049;-76
2023/07/03 03:01:05;;;;;;;0.10;0.10;;;;;;;14.82;62.16;96998.47;5041912;28;20622;-75
2023/07/03 03:03:33;;;;;;;0.10;0.10;;;;;;;14.86;62.04;97002.28;5042652;28;20591;-75
2023/07/03 03:06:02;;;;;;;0.10;0.10;;;;;;;14.90;62.03;97003.47;5044665;28;20049;-76
2023/07/03 03:08:30;;;;;;;0.10;0.10;;;;;;;14.90;61.95;96992.72;5042143;28;20040;-75
2023/07/03 03:10:59;;;;;;;0.20;0.20;;;;;;;14.89;61.75;96997.28;5041862;28;20683;-76
2023/07/03 03:13:27;;;;;;;0.10;0.10;;;;;;;14.91;61.86;96992.50;5043565;28;20049;-76
2023/07/03 03:15:58;;;;;;;0.00;0.00;;;;;;;14.89;61.73;96994.59;5046969;28;20049;-76
2023/07/03 03:18:25;;;;;;;0.00;0.00;;;;;;;14.95;61.68;96995.53;5048167;28;20512;-77
2023/07/03 03:20:53;;;;;;;0.10;0.10;;;;;;;14.89;61.94;96994.59;5043436;28;20091;-77
2023/07/03 03:23:22;;;;;;;0.10;0.10;;;;;;;14.89;61.90;96999.16;5043721;28;20091;-78
2023/07/03 03:25:50;;;;;;;0.10;0.10;;;;;;;14.89;61.89;97005.34;5058580;28;20041;-77
2023/07/03 03:28:18;;;;;;;0.10;0.10;;;;;;;14.90;62.01;97006.16;5043634;28;20096;-76
2023/07/03 03:30:46;;;;;;;0.10;0.10;;;;;;;14.87;62.09;97007.44;5043060;28;20615;-76
2023/07/03 03:33:14;;;;;;;0.30;0.30;;;;;;;14.85;62.38;97004.16;5044076;28;20051;-76
2023/07/03 03:35:42;;;;;;;0.00;0.00;;;;;;;14.84;62.35;97004.44;5042651;28;20072;-76
2023/07/03 03:38:09;;;;;;;0.10;0.10;;;;;;;14.84;62.31;97005.25;5043818;28;20068;-76
2023/07/03 03:40:38;;;;;;;0.10;0.10;;;;;;;14.82;62.43;97009.22;5041227;28;20041;-76
2023/07/03 03:43:07;;;;;;;0.20;0.20;;;;;;;14.89;62.20;97005.34;5041584;28;20045;-75
2023/07/03 03:45:35;;;;;;;0.00;0.00;;;;;;;14.90;62.24;97006.97;5045260;28;20049;-74
2023/07/03 03:48:04;;;;;;;0.10;0.10;;;;;;;14.92;62.14;97007.56;5048990;28;20664;-75
2023/07/03 03:50:32;;;;;;;0.10;0.10;;;;;;;14.89;62.37;97020.66;5044577;28;20564;-75
2023/07/03 03:53:00;;;;;;;0.10;0.10;;;;;;;14.98;62.37;97016.53;5047498;28;20567;-75
2023/07/03 03:55:27;;;;;;;0.10;0.10;;;;;;;14.97;62.19;97010.34;5043463;28;20153;-75
2023/07/03 03:57:57;;;;;;;0.00;0.00;;;;;;;14.91;62.34;97011.31;5040621;28;20128;-75
2023/07/03 04:00:25;;;;;;;0.20;0.20;;;;;;;14.95;62.29;97017.81;5040432;28;20076;-76
2023/07/03 04:02:52;;;;;;;0.10;0.10;;;;;;;14.98;62.28;97019.22;5039794;28;20053;-76
2023/07/03 04:05:20;;;;;;;0.10;0.10;;;;;;;15.01;62.11;97021.44;5040994;28;20503;-76
2023/07/03 04:07:48;;;;;;;0.20;0.20;;;;;;;14.90;62.25;97009.66;5040179;28;20050;-75
2023/07/03 04:10:15;;;;;;;0.20;0.20;;;;;;;14.90;62.47;97023.09;5042699;28;20045;-77
2023/07/03 04:12:43;;;;;;;0.10;0.10;;;;;;;14.94;62.37;97015.41;5041694;28;20037;-75
2023/07/03 04:15:12;;;;;;;0.10;0.10;;;;;;;14.91;62.39;97027.44;5041557;28;20500;-76
2023/07/03 04:17:39;;;;;;;0.10;0.10;;;;;;;14.89;62.51;97024.16;5043078;28;20041;-75
2023/07/03 04:20:10;;;;;;;0.10;0.10;;;;;;;14.84;62.72;97029.44;5041927;28;20045;-75
2023/07/03 04:22:37;;;;;;;0.03;0.03;;;;;;;14.88;62.44;97029.75;5042132;28;20508;-76
2023/07/03 04:25:06;;;;;;;0.20;0.20;;;;;;;14.84;62.54;97025.94;5042229;28;20053;-76
2023/07/03 04:27:34;;;;;;;0.10;0.10;;;;;;;14.88;62.45;97030.56;5041056;28;20506;-75
2023/07/03 04:30:02;;;;;;;0.10;0.10;;;;;;;14.90;62.31;97024.97;5040576;28;20055;-75
2023/07/03 04:32:31;;;;;;;0.10;0.10;;;;;;;14.86;62.40;97032.66;5042245;28;20045;-76
2023/07/03 04:35:00;;;;;;;0.10;0.10;;;;;;;14.92;62.31;97026.38;5041748;28;20044;-75
2023/07/03 04:37:29;;;;;;;0.20;0.20;;;;;;;14.95;62.32;97038.53;5040876;28;20160;-75
2023/07/03 04:39:57;;;;;;;0.20;0.20;;;;;;;14.95;62.14;97038.53;5039694;28;20033;-75
2023/07/03 04:42:24;;;;;;;0.20;0.20;;;;;;;15.01;61.99;97030.31;5040616;28;20047;-75
2023/07/03 04:44:52;;;;;;;0.13;0.13;;;;;;;15.03;62.13;97038.16;5040977;28;20041;-75
2023/07/03 04:47:20;;;;;;;0.10;0.10;;;;;;;15.14;61.76;97041.88;5040340;28;20050;-75
2023/07/03 04:49:49;;;;;;;0.10;0.10;;;;;;;15.23;61.72;97053.91;5040937;28;20049;-75
2023/07/03 04:52:16;;;;;;;0.10;0.10;;;;;;;15.25;61.73;97049.09;5042100;28;20419;-77
2023/07/03 04:54:44;;;;;;;0.20;0.20;;;;;;;15.33;61.28;97052.22;5041578;28;20049;-75
2023/07/03 04:57:12;;;;;;;0.10;0.10;;;;;;;15.31;61.53;97051.66;5040651;28;20072;-74
2023/07/03 04:59:42;;;;;;;0.10;0.10;;;;;;;15.35;61.56;97047.44;5039861;28;20045;-74
2023/07/03 05:02:11;;;;;;;0.10;0.10;;;;;;;15.30;61.47;97054.56;5040118;28;20052;-74
2023/07/03 05:04:39;;;;;;;0.10;0.10;;;;;;;15.36;61.64;97048.25;5041928;28;20054;-75
2023/07/03 05:07:08;;;;;;;0.10;0.10;;;;;;;15.50;61.38;97048.78;5040638;28;20072;-75
2023/07/03 05:09:36;;;;;;;0.20;0.20;;;;;;;15.53;61.25;97046.44;5041314;28;20051;-76
2023/07/03 05:12:04;;;;;;;0.10;0.10;;;;;;;15.57;61.01;97046.81;5039691;28;20052;-74
2023/07/03 05:14:31;;;;;;;0.20;0.20;;;;;;;15.59;60.60;97050.06;5039682;28;20033;-74
2023/07/03 05:16:59;;;;;;;0.10;0.10;;;;;;;15.64;60.77;97050.19;5040044;28;20037;-74
2023/07/03 05:19:26;;;;;;;0.10;0.10;;;;;;;15.72;60.71;97047.91;5040988;28;20045;-74
2023/07/03 05:21:54;;;;;;;0.00;0.00;;;;;;;15.74;60.64;97044.97;5039259;28;20099;-74
2023/07/03 05:24:23;;;;;;;0.10;0.10;;;;;;;15.79;60.57;97048.56;5041897;28;20084;-74
2023/07/03 05:26:51;;;;;;;0.13;0.13;;;;;;;15.83;60.31;97059.69;5041451;28;20392;-74
2023/07/03 05:29:18;;;;;;;0.05;0.05;;;;;;;15.86;60.23;97051.13;5040728;28;20048;-74
2023/07/03 05:31:46;;;;;;;0.10;0.10;;;;;;;15.93;60.24;97059.03;5039418;28;20038;-74
2023/07/03 05:34:14;;;;;;;0.10;0.10;;;;;;;15.95;59.99;97054.25;5040376;28;20052;-74
2023/07/03 05:36:42;;;;;;;0.10;0.10;;;;;;;15.94;60.16;97061.50;5042656;28;20041;-74
2023/07/03 05:39:10;;;;;;;0.10;0.10;;;;;;;15.92;60.46;97060.09;5041707;28;20072;-72
2023/07/03 05:41:38;;;;;;;0.17;0.17;;;;;;;16.00;60.40;97059.72;5041191;28;20075;-72
2023/07/03 05:44:06;;;;;;;0.00;0.00;;;;;;;16.09;60.25;97064.44;5042503;28;20091;-73
2023/07/03 05:46:34;;;;;;;0.10;0.10;;;;;;;16.11;59.76;97061.53;5042930;28;20477;-73
2023/07/03 05:49:01;;;;;;;0.00;0.00;;;;;;;16.22;60.19;97063.31;5039873;28;20061;-73
2023/07/03 05:51:29;;;;;;;0.00;0.00;;;;;;;16.33;59.96;97067.00;5042111;28;20048;-73
2023/07/03 05:53:56;;;;;;;0.10;0.10;;;;;;;16.49;59.20;97064.34;5044953;28;20037;-73
2023/07/03 05:56:28;;;;;;;0.20;0.20;;;;;;;16.51;58.81;97075.66;5043494;28;20037;-73
2023/07/03 05:58:57;;;;;;;0.10;0.10;;;;;;;16.50;58.53;97074.06;5042737;28;20099;-72
2023/07/03 06:01:25;;;;;;;0.10;0.10;;;;;;;16.55;58.43;97072.50;5043789;28;20397;-73
2023/07/03 06:03:53;;;;;;;0.08;0.08;;;;;;;16.58;57.57;97082.78;5044404;28;20056;-73
2023/07/03 06:06:21;;;;;;;0.10;0.10;;;;;;;16.63;57.65;97085.56;5044991;28;20123;-72
2023/07/03 06:08:48;;;;;;;0.10;0.10;;;;;;;16.66;57.39;97091.31;5043671;28;20033;-73
2023/07/03 06:11:16;;;;;;;0.00;0.00;;;;;;;16.79;56.66;97082.06;5043219;28;20049;-72
2023/07/03 06:13:44;;;;;;;0.10;0.10;;;;;;;16.78;56.71;97086.66;5041872;28;20050;-74
2023/07/03 06:16:12;;;;;;;0.10;0.10;;;;;;;16.72;56.63;97082.22;5044064;28;20041;-73
2023/07/03 06:18:43;;;;;;;0.10;0.10;;;;;;;16.72;56.72;97092.19;5042690;28;20048;-74
2023/07/03 06:21:10;;;;;;;0.10;0.10;;;;;;;16.76;56.59;97090.66;5044112;28;20042;-73
2023/07/03 06:23:38;;;;;;;0.10;0.10;;;;;;;16.83;56.57;97086.72;5045083;28;20049;-75
2023/07/03 06:26:05;;;;;;;0.03;0.03;;;;;;;16.90;56.63;97086.56;5042593;28;20049;-74
2023/07/03 06:28:33;;;;;;;0.10;0.10;;;;;;;16.92;55.85;97081.75;5044394;28;20405;-73
2023/07/03 06:31:00;;;;;;;0.10;0.10;;;;;;;17.01;55.68;97084.81;5045366;28;20037;-73
2023/07/03 06:33:30;;;;;;;0.10;0.10;;;;;;;17.02;55.77;97079.19;5045669;28;20040;-73
2023/07/03 06:35:57;;;;;;;0.00;0.00;;;;;;;17.07;55.48;97073.03;5044934;28;20119;-73
2023/07/03 06:38:25;;;;;;;0.10;0.10;;;;;;;17.15;55.79;97073.41;5043750;28;20057;-73
2023/07/03 06:40:56;;;;;;;0.10;0.10;;;;;;;17.25;55.16;97073.56;5045344;28;20069;-73
2023/07/03 06:43:24;;;;;;;0.17;0.17;;;;;;;17.23;55.21;97081.06;5044724;28;20404;-73
2023/07/03 06:45:51;;;;;;;0.10;0.10;;;;;;;17.19;55.25;97079.97;5042091;28;20037;-73
2023/07/03 06:48:23;;;;;;;0.08;0.08;;;;;;;17.27;55.38;97084.09;5044770;28;20047;-74
2023/07/03 06:51:01;;;;;;;0.10;0.10;;;;;;;17.32;55.11;97070.69;5042252;28;20037;-73
2023/07/03 06:53:28;;;;;;;0.10;0.10;;;;;;;17.34;54.63;97079.31;5045453;28;20045;-73
2023/07/03 06:55:57;;;;;;;0.10;0.10;;;;;;;17.39;54.95;97074.00;5043134;28;20064;-73
2023/07/03 06:58:26;;;;;;;0.13;0.13;;;;;;;17.48;53.92;97074.38;5042337;28;20275;-72
2023/07/03 07:00:53;;;;;;;0.08;0.08;;;;;;;17.49;53.52;97073.31;5044322;28;20037;-73
2023/07/03 07:03:21;;;;;;;0.10;0.10;;;;;;;17.60;53.77;97072.38;5043489;28;20045;-73
2023/07/03 07:05:49;;;;;;;0.10;0.10;;;;;;;17.70;53.17;97085.19;5044088;28;20044;-73
2023/07/03 07:08:19;;;;;;;0.20;0.20;;;;;;;17.69;53.34;97086.25;5043116;28;20045;-73
2023/07/03 07:10:47;;;;;;;0.10;0.10;;;;;;;17.77;53.34;97080.41;5041926;28;20037;-73
2023/07/03 07:13:14;;;;;;;0.10;0.10;;;;;;;17.83;51.93;97084.81;5043826;28;20059;-74
2023/07/03 07:15:42;;;;;;;0.00;0.00;;;;;;;17.84;52.19;97083.75;5042557;28;20041;-74
2023/07/03 07:18:10;;;;;;;0.10;0.10;;;;;;;17.81;52.00;97073.44;5042680;28;20044;-75
2023/07/03 07:20:37;;;;;;;0.10;0.10;;;;;;;17.77;51.70;97078.53;5043188;28;20448;-73
2023/07/03 07:23:06;;;;;;;0.10;0.10;;;;;;;17.87;52.00;97078.63;5042790;28;20063;-73
2023/07/03 07:25:35;;;;;;;0.10;0.10;;;;;;;17.94;51.96;97081.16;5042488;28;20033;-76
2023/07/03 07:28:03;;;;;;;0.00;0.00;;;;;;;18.03;51.18;97074.22;5041344;28;20049;-72
2023/07/03 07:30:31;;;;;;;0.10;0.10;;;;;;;17.96;50.98;97079.81;5044292;28;20123;-72
2023/07/03 07:32:58;;;;;;;0.10;0.10;;;;;;;17.90;51.45;97074.63;5041498;28;20047;-72
2023/07/03 07:35:26;;;;;;;0.10;0.10;;;;;;;17.87;51.57;97081.34;5056842;28;20131;-73
2023/07/03 07:37:54;;;;;;;0.00;0.00;;;;;;;18.05;51.07;97073.97;5040907;28;20047;-73
2023/07/03 07:40:21;;;;;;;0.10;0.10;;;;;;;17.97;50.94;97072.53;5041624;28;20124;-73
2023/07/03 07:42:50;;;;;;;0.10;0.10;;;;;;;18.06;51.26;97054.81;5041227;28;20484;-73
2023/07/03 07:45:18;;;;;;;0.13;0.13;;;;;;;18.29;50.99;97067.97;5042269;28;20041;-74
2023/07/03 07:47:45;;;;;;;0.10;0.10;;;;;;;18.43;51.04;97062.16;5042308;28;20460;-72
2023/07/03 07:50:13;;;;;;;0.03;0.03;;;;;;;18.63;50.46;97073.16;5041185;28;20048;-73
2023/07/03 07:52:40;;;;;;;0.10;0.10;;;;;;;18.53;49.94;97067.66;5043699;28;20037;-72
2023/07/03 07:55:09;;;;;;;0.10;0.10;;;;;;;18.52;49.85;97068.72;5041893;28;20059;-72
2023/07/03 07:57:37;;;;;;;0.10;0.10;;;;;;;18.59;49.91;97067.44;5041628;28;20050;-72
2023/07/03 08:00:07;;;;;;;0.10;0.10;;;;;;;18.61;50.02;97076.13;5042092;28;20053;-72
2023/07/03 08:02:38;;;;;;;0.10;0.10;;;;;;;18.70;49.73;97061.06;5043389;28;20044;-72
2023/07/03 08:05:06;;;;;;;0.10;0.10;;;;;;;18.82;49.65;97081.69;5041081;28;20500;-72
2023/07/03 08:07:34;;;;;;;0.00;0.00;;;;;;;18.98;49.25;97054.50;5042382;28;20643;-72
2023/07/03 08:10:02;;;;;;;0.10;0.10;;;;;;;19.10;48.90;97059.72;5041108;28;20504;-73
2023/07/03 08:12:29;;;;;;;0.10;0.10;;;;;;;19.23;48.22;97058.41;5044638;28;20044;-73
2023/07/03 08:14:57;;;;;;;0.10;0.10;;;;;;;19.36;48.58;97053.34;5039960;28;20056;-72
2023/07/03 08:17:26;;;;;;;0.10;0.10;;;;;;;19.56;47.72;97055.34;5043543;28;20099;-73
2023/07/03 08:19:53;;;;;;;0.10;0.10;;;;;;;19.58;48.06;97053.19;5041172;28;20045;-73
2023/07/03 08:22:21;;;;;;;0.00;0.00;;;;;;;19.76;47.52;97049.19;5043056;28;20124;-73
2023/07/03 08:24:48;;;;;;;0.05;0.05;;;;;;;19.93;47.00;97051.69;5042418;28;20040;-73
2023/07/03 08:27:16;;;;;;;0.10;0.10;;;;;;;20.04;46.71;97045.16;5043083;28;20477;-73
2023/07/03 08:29:43;;;;;;;0.00;0.00;;;;;;;19.91;46.47;97059.25;5041916;28;20049;-74
2023/07/03 08:32:11;;;;;;;0.10;0.10;;;;;;;19.76;47.45;97039.16;5041208;28;20041;-72
2023/07/03 08:34:40;;;;;;;0.10;0.10;;;;;;;19.98;46.76;97048.97;5040386;28;20046;-72
2023/07/03 08:37:28;;;;;;;0.03;0.03;;;;;;;19.92;46.09;97061.69;5040828;28;20048;-73
2023/07/03 08:39:55;;;;;;;0.10;0.10;;;;;;;20.10;46.43;97055.75;5039717;28;20043;-72
2023/07/03 08:42:25;;;;;;;0.00;0.00;;;;;;;19.86;46.74;97054.63;5040798;28;20042;-73
2023/07/03 08:44:54;;;;;;;0.10;0.10;;;;;;;19.87;46.62;97056.25;5041427;28;20037;-73
2023/07/03 08:47:24;;;;;;;0.10;0.10;;;;;;;20.02;46.40;97058.19;5041674;28;20493;-73
2023/07/03 08:49:53;;;;;;;0.05;0.05;;;;;;;19.98;46.46;97060.63;5040227;28;20042;-72
2023/07/03 08:52:25;;;;;;;0.10;0.10;;;;;;;20.19;45.74;97060.66;5041567;28;20034;-73
2023/07/03 08:54:53;;;;;;;0.03;0.03;;;;;;;20.22;45.25;97058.22;5039855;28;20037;-73
2023/07/03 08:57:21;;;;;;;0.08;0.08;;;;;;;20.22;45.91;97047.38;5041285;28;20040;-73
2023/07/03 08:59:49;;;;;;;0.10;0.10;;;;;;;20.22;45.61;97054.69;5039470;28;20045;-73
2023/07/03 09:02:23;;;;;;;0.10;0.10;;;;;;;20.24;45.36;97053.34;5041318;28;20485;-73
2023/07/03 09:05:09;;;;;;;0.00;0.00;;;;;;;20.33;44.74;97043.59;5040518;28;20045;-72
2023/07/03 09:07:40;;;;;;;0.00;0.00;;;;;;;20.35;44.79;97060.41;5041017;28;20072;-73
2023/07/03 09:10:11;;;;;;;;;;;;;;;20.36;44.52;97053.09;5039234;28;20052;-73
2023/07/03 09:12:42;;;;;;;0.10;0.10;;;;;;;20.40;45.12;97067.75;5040405;28;20011;-73
2023/07/03 09:15:13;;;;;;;0.10;0.10;;;;;;;20.50;44.50;97054.19;5042235;28;20045;-73
2023/07/03 09:17:42;;;;;;;0.10;0.10;;;;;;;20.58;43.82;97063.69;5039898;28;20560;-73
2023/07/03 09:20:13;;;;;;;0.00;0.00;;;;;;;20.95;43.15;97063.41;5039499;28;20041;-73
2023/07/03 09:22:45;;;;;;;0.10;0.10;;;;;;;20.87;41.96;97065.56;5039611;28;20121;-73
2023/07/03 09:25:16;;;;;;;0.00;0.00;;;;;;;20.55;42.12;97059.63;5040159;28;20584;-73
2023/07/03 09:27:45;;;;;;;0.03;0.03;;;;;;;20.47;42.23;97074.53;5044925;28;20396;-72
2023/07/03 09:30:16;;;;;;;0.10;0.10;;;;;;;20.35;43.19;97073.19;5045645;28;20096;-72
2023/07/03 09:32:44;;;;;;;0.10;0.10;;;;;;;20.36;43.29;97070.19;5043918;28;20037;-72
2023/07/03 09:35:15;;;;;;;0.10;0.10;;;;;;;20.29;43.12;97082.34;5044143;28;20056;-73
2023/07/03 09:37:46;;;;;;;0.10;0.10;;;;;;;20.14;43.37;97081.22;5043183;28;20608;-73
2023/07/03 09:40:16;;;;;;;0.10;0.10;;;;;;;20.29;43.24;97083.16;5043280;28;20045;-72
2023/07/03 09:42:44;;;;;;;0.10;0.10;;;;;;;20.42;43.65;97079.97;5043449;28;20128;-72
2023/07/03 09:45:17;;;;;;;0.03;0.03;;;;;;;20.30;43.62;97092.13;5045051;28;20480;-73
2023/07/03 09:47:48;;;;;;;0.05;0.05;;;;;;;20.26;43.83;97074.75;5044019;28;20469;-73
2023/07/03 09:50:22;;;;;;;0.10;0.10;;;;;;;20.66;43.47;97069.38;5045289;28;20064;-73
2023/07/03 09:52:54;;;;;;;0.10;0.10;;;;;;;20.64;43.11;97078.88;5044126;28;20087;-72
2023/07/03 09:55:26;;;;;;;0.10;0.10;;;;;;;20.75;43.19;97058.81;5044531;28;20049;-75
2023/07/03 09:57:54;;;;;;;0.10;0.10;;;;;;;21.10;43.03;97071.50;5044072;28;20037;-72
2023/07/03 10:00:25;;;;;;;0.00;0.00;;;;;;;20.76;42.62;97079.44;5045171;28;20045;-74
2023/07/03 10:02:56;;;;;;;0.10;0.10;;;;;;;20.87;42.81;97098.13;5042639;28;20041;-74
2023/07/03 10:05:31;;;;;;;0.00;0.00;;;;;;;20.63;42.44;97082.69;5044011;28;20048;-73
2023/07/03 10:08:04;;;;;;;0.05;0.05;;;;;;;20.75;42.80;97078.63;5042768;28;20053;-74
2023/07/03 10:10:34;;;;;;;0.10;0.10;;;;;;;20.56;43.18;97082.94;5043972;28;20043;-74
2023/07/03 10:13:09;;;;;;;0.00;0.00;;;;;;;20.63;43.65;97086.22;5043328;28;20046;-74
2023/07/03 10:15:38;;;;;;;0.00;0.00;;;;;;;21.13;42.45;97073.66;5043662;28;20056;-72
2023/07/03 10:18:10;;;;;;;0.00;0.00;;;;;;;21.22;41.80;97062.00;5044072;28;20127;-73
2023/07/03 10:20:43;;;;;;;0.10;0.10;;;;;;;21.08;41.62;97070.94;5043208;28;20511;-72
2023/07/03 10:23:13;;;;;;;0.10;0.10;;;;;;;21.39;40.86;97058.13;5043894;28;20384;-72
2023/07/03 10:25:43;;;;;;;0.10;0.10;;;;;;;21.26;40.61;97078.56;5041937;28;20045;-74
2023/07/03 10:28:15;;;;;;;0.08;0.08;;;;;;;21.50;39.68;97065.97;5043516;28;20041;-72
2023/07/03 10:30:43;;;;;;;0.00;0.00;;;;;;;21.45;39.46;97068.72;5043648;28;20048;-72
2023/07/03 10:33:14;;;;;;;0.00;0.00;;;;;;;21.66;38.79;97061.31;5046940;28;20124;-71
2023/07/03 10:35:44;;;;;;;0.00;0.00;;;;;;;21.55;39.48;97065.16;5044902;28;20404;-73
2023/07/03 10:38:16;;;;;;;0.08;0.08;;;;;;;21.74;39.55;97068.06;5049783;28;20048;-74
2023/07/03 10:40:45;;;;;;;;;;;;;;;21.56;39.18;97069.50;5049565;28;20045;-72
2023/07/03 10:43:13;;;;;;;0.15;0.15;;;;;;;21.77;39.31;97053.91;5044446;28;19928;-72
2023/07/03 10:45:41;;;;;;;0.10;0.10;;;;;;;21.73;38.72;97069.16;5066141;28;20049;-72
2023/07/03 10:48:14;;;;;;;0.00;0.00;;;;;;;21.62;38.80;97073.81;5041805;28;20581;-72
2023/07/03 10:50:51;;;;;;;0.10;0.10;;;;;;;21.68;38.48;97064.56;5043060;28;20033;-72
2023/07/03 10:53:23;;;;;;;0.00;0.00;;;;;;;21.50;38.64;97076.03;5042812;28;20404;-72
2023/07/03 10:56:02;;;;;;;0.00;0.00;;;;;;;21.79;38.85;97074.28;5044487;28;20043;-73
2023/07/03 10:58:35;;;;;;;0.10;0.10;;;;;;;22.07;38.32;97067.38;5042958;28;20045;-72
2023/07/03 11:01:08;;;;;;;0.10;0.10;;;;;;;21.68;39.44;97064.56;5043202;28;20063;-75
2023/07/03 11:03:40;;;;;;;0.13;0.13;;;;;;;21.63;39.85;97063.75;5043728;28;20029;-73
2023/07/03 11:06:15;;;;;;;0.05;0.05;;;;;;;21.20;40.30;97061.47;5043948;28;20053;-73
2023/07/03 11:08:47;;;;;;;0.10;0.10;;;;;;;20.95;41.42;97076.97;5042736;28;20049;-73
2023/07/03 11:11:26;;;;;;;0.00;0.00;;;;;;;20.80;42.25;97077.78;5044117;28;20042;-74
2023/07/03 11:13:57;;;;;;;0.00;0.00;;;;;;;20.95;42.39;97074.25;5044015;28;20481;-73
2023/07/03 11:16:30;;;;;;;0.10;0.10;;;;;;;21.19;40.88;97054.41;5044502;28;20041;-73
2023/07/03 11:19:09;;;;;;;0.10;0.10;;;;;;;21.41;40.85;97064.09;5044437;28;20053;-73
2023/07/03 11:21:44;;;;;;;0.10;0.10;;;;;;;21.40;41.11;97055.16;5043112;28;20442;-73
2023/07/03 11:24:17;;;;;;;0.10;0.10;;;;;;;21.81;40.63;97069.38;5044186;28;20061;-73
2023/07/03 11:26:50;;;;;;;0.10;0.10;;;;;;;22.07;39.83;97045.63;5042836;28;20156;-73
2023/07/03 11:29:21;;;;;;;0.10;0.10;;;;;;;21.80;39.74;97054.16;5042764;28;20045;-74
2023/07/03 11:31:50;;;;;;;0.00;0.00;;;;;;;21.91;40.31;97065.78;5044024;28;20061;-73
2023/07/03 11:34:19;;;;;;;0.10;0.10;;;;;;;21.83;40.59;97056.31;5043551;28;20380;-72
2023/07/03 11:36:54;;;;;;;0.00;0.00;;;;;;;22.16;40.20;97054.81;5041685;28;20390;-73
2023/07/03 11:39:33;;;;;;;0.00;0.00;;;;;;;22.40;39.79;97056.81;5042946;28;20085;-73
2023/07/03 11:42:13;;;;;;;0.10;0.10;;;;;;;22.52;38.18;97051.84;5043839;28;20044;-73
2023/07/03 11:44:45;;;;;;;0.00;0.00;;;;;;;22.52;38.64;97051.84;5042543;28;20049;-73